createdAt,value
2018-07-13T00:01:59.601Z,17.62
2018-07-13T00:04:27.689Z,17.42
2018-07-13T00:06:56.685Z,17.35
2018-07-13T00:09:24.664Z,17.42
2018-07-13T00:11:52.665Z,17.44
2018-07-13T00:14:21.709Z,17.56
2018-07-13T00:16:50.988Z,17.61
2018-07-13T00:19:19.763Z,17.63
2018-07-13T00:21:47.777Z,17.70
2018-07-13T00:24:15.784Z,17.60
2018-07-13T00:26:43.824Z,17.61
2018-07-13T00:29:12.214Z,17.67
2018-07-13T00:31:41.305Z,17.78
2018-07-13T00:34:09.407Z,17.58
2018-07-13T00:36:37.425Z,17.73
2018-07-13T00:39:08.688Z,17.59
2018-07-13T00:41:36.678Z,17.64
2018-07-13T00:44:05.428Z,17.60
2018-07-13T00:46:33.476Z,17.69
2018-07-13T00:49:01.480Z,17.73
2018-07-13T00:51:29.800Z,17.73
2018-07-13T00:53:57.809Z,17.59
2018-07-13T00:56:25.810Z,17.47
2018-07-13T00:58:53.805Z,17.55
2018-07-13T01:01:22.161Z,17.50
2018-07-13T01:03:50.188Z,17.65
2018-07-13T01:06:18.180Z,17.74
2018-07-13T01:08:46.172Z,17.87
2018-07-13T01:11:14.157Z,17.93
2018-07-13T01:13:42.143Z,17.99
2018-07-13T01:16:10.150Z,17.93
2018-07-13T01:18:38.157Z,17.85
2018-07-13T01:21:06.469Z,17.86
2018-07-13T01:23:34.479Z,18.02
2018-07-13T01:26:02.456Z,18.10
2018-07-13T01:28:30.452Z,18.04
2018-07-13T01:30:58.512Z,17.89
2018-07-13T01:33:26.526Z,17.73
2018-07-13T01:35:54.557Z,17.77
2018-07-13T01:38:22.540Z,17.83
2018-07-13T01:40:50.521Z,17.69
2018-07-13T01:43:18.546Z,17.76
2018-07-13T01:45:46.634Z,17.74
2018-07-13T01:48:14.712Z,17.79
2018-07-13T01:50:42.745Z,17.67
2018-07-13T01:53:10.757Z,17.65
2018-07-13T01:55:38.867Z,17.51
2018-07-13T01:58:06.780Z,17.64
2018-07-13T02:00:34.754Z,17.83
2018-07-13T02:03:02.796Z,17.91
2018-07-13T02:05:30.813Z,17.67
2018-07-13T02:07:59.881Z,17.73
2018-07-13T02:10:28.032Z,17.66
2018-07-13T02:12:56.034Z,17.82
2018-07-13T02:15:24.037Z,17.79
2018-07-13T02:17:52.064Z,17.60
2018-07-13T02:20:20.021Z,17.65
2018-07-13T02:22:48.101Z,17.47
2018-07-13T02:25:16.105Z,17.55
2018-07-13T02:27:44.137Z,17.53
2018-07-13T02:30:12.174Z,17.59
2018-07-13T02:32:40.197Z,17.52
2018-07-13T02:35:08.188Z,17.58
2018-07-13T02:37:36.235Z,17.47
2018-07-13T02:40:04.453Z,17.28
2018-07-13T02:42:32.464Z,17.30
2018-07-13T02:45:00.480Z,17.51
2018-07-13T02:47:28.480Z,17.52
2018-07-13T02:49:56.468Z,17.55
2018-07-13T02:52:24.483Z,17.40
2018-07-13T02:54:52.528Z,17.27
2018-07-13T02:57:20.521Z,17.32
2018-07-13T02:59:48.505Z,17.29
2018-07-13T03:02:16.501Z,17.24
2018-07-13T03:04:44.836Z,17.16
2018-07-13T03:07:12.832Z,17.03
2018-07-13T03:09:40.820Z,17.01
2018-07-13T03:12:09.008Z,17.06
2018-07-13T03:14:37.009Z,17.05
2018-07-13T03:17:05.043Z,17.16
2018-07-13T03:19:33.022Z,17.19
2018-07-13T03:22:01.054Z,17.02
2018-07-13T03:24:29.009Z,17.02
2018-07-13T03:26:57.149Z,17.17
2018-07-13T03:29:25.225Z,17.12
2018-07-13T03:31:53.268Z,17.24
2018-07-13T03:34:21.296Z,17.23
2018-07-13T03:36:49.355Z,17.13
2018-07-13T03:39:18.984Z,17.02
2018-07-13T03:41:46.990Z,17.06
2018-07-13T03:44:14.990Z,17.19
2018-07-13T03:46:43.572Z,17.11
2018-07-13T03:49:11.540Z,17.20
2018-07-13T03:51:39.536Z,17.29
2018-07-13T03:54:07.545Z,17.21
2018-07-13T03:59:02.678Z,17.13
2018-07-13T04:01:30.641Z,17.20
2018-07-13T04:03:58.701Z,17.05
2018-07-13T04:06:26.720Z,17.09
2018-07-13T04:08:54.722Z,17.23
2018-07-13T04:11:22.709Z,17.42
2018-07-13T04:13:50.764Z,17.41
2018-07-13T04:16:18.760Z,17.52
2018-07-13T04:18:46.773Z,17.60
2018-07-13T04:21:14.756Z,17.47
2018-07-13T04:23:42.785Z,17.45
2018-07-13T04:26:10.769Z,17.58
2018-07-13T04:28:38.915Z,17.61
2018-07-13T04:33:44.812Z,17.64
2018-07-13T04:36:12.802Z,17.76
2018-07-13T04:38:40.846Z,17.81
2018-07-13T04:41:08.977Z,17.79
2018-07-13T04:43:36.837Z,17.79
2018-07-13T04:46:04.884Z,17.85
2018-07-13T04:48:34.208Z,18.02
2018-07-13T04:51:00.931Z,17.68
2018-07-13T04:53:28.923Z,17.72
2018-07-13T04:55:57.022Z,17.55
2018-07-13T04:58:26.150Z,17.79
2018-07-13T05:00:54.137Z,17.75
2018-07-13T05:03:22.328Z,17.68
2018-07-13T05:05:50.385Z,17.77
2018-07-13T05:08:18.449Z,17.81
2018-07-13T05:10:46.434Z,17.74
2018-07-13T05:13:14.857Z,17.73
2018-07-13T05:15:42.860Z,17.80
2018-07-13T05:18:10.869Z,17.63
2018-07-13T05:20:38.857Z,17.64
2018-07-13T05:23:06.864Z,17.53
2018-07-13T05:25:34.865Z,17.53
2018-07-13T05:28:02.945Z,17.62
2018-07-13T05:30:31.001Z,17.62
2018-07-13T05:32:59.011Z,17.79
2018-07-13T05:35:26.985Z,17.71
2018-07-13T05:37:55.002Z,17.63
2018-07-13T05:40:22.992Z,17.57
2018-07-13T05:42:51.297Z,17.67
2018-07-13T05:45:19.284Z,17.64
2018-07-13T05:47:47.340Z,17.70
2018-07-13T05:50:15.570Z,17.60
2018-07-13T05:52:43.553Z,17.50
2018-07-13T05:55:11.544Z,17.66
2018-07-13T05:57:39.533Z,17.81
2018-07-13T06:00:07.546Z,17.89
2018-07-13T06:02:35.530Z,18.02
2018-07-13T06:05:03.535Z,18.04
2018-07-13T06:07:31.518Z,18.16
2018-07-13T06:09:59.522Z,18.22
2018-07-13T06:12:27.504Z,18.30
2018-07-13T06:14:55.519Z,18.26
2018-07-13T06:17:23.500Z,18.47
2018-07-13T06:19:51.493Z,18.41
2018-07-13T06:22:19.589Z,18.32
2018-07-13T06:24:48.226Z,18.42
2018-07-13T06:27:16.213Z,18.40
2018-07-13T06:29:44.216Z,18.43
2018-07-13T06:32:12.212Z,18.59
2018-07-13T06:34:40.205Z,18.68
2018-07-13T06:37:08.194Z,18.63
2018-07-13T06:39:36.189Z,18.69
2018-07-13T06:42:04.189Z,18.78
2018-07-13T06:44:32.190Z,18.69
2018-07-13T06:47:00.208Z,18.73
2018-07-13T06:49:28.265Z,18.81
2018-07-13T06:51:56.249Z,18.77
2018-07-13T06:54:24.256Z,18.80
2018-07-13T06:56:52.389Z,18.88
2018-07-13T06:59:20.988Z,19.09
2018-07-13T07:01:49.265Z,18.96
2018-07-13T07:04:35.256Z,18.90
2018-07-13T07:07:05.648Z,18.98
2018-07-13T07:09:33.649Z,18.83
2018-07-13T07:13:15.444Z,18.88
2018-07-13T07:15:43.437Z,18.75
2018-07-13T07:18:11.464Z,18.62
2018-07-13T07:20:39.456Z,18.70
2018-07-13T07:23:07.429Z,18.81
2018-07-13T07:25:35.421Z,18.78
2018-07-13T07:28:03.409Z,18.70
2018-07-13T07:30:31.382Z,18.74
2018-07-13T07:32:59.374Z,18.37
2018-07-13T07:35:27.376Z,18.52
2018-07-13T07:37:55.353Z,18.78
2018-07-13T07:40:23.372Z,18.75
2018-07-13T07:42:51.371Z,18.88
2018-07-13T07:45:19.362Z,18.79
2018-07-13T07:47:47.346Z,18.86
2018-07-13T07:50:15.382Z,18.92
2018-07-13T07:52:43.366Z,19.01
2018-07-13T07:55:11.351Z,19.16
2018-07-13T07:57:39.574Z,18.75
2018-07-13T08:00:07.545Z,18.76
2018-07-13T08:02:35.537Z,18.51
2018-07-13T08:05:03.585Z,18.55
2018-07-13T08:07:31.646Z,18.64
2018-07-13T08:09:59.574Z,18.65
2018-07-13T08:12:27.561Z,18.78
2018-07-13T08:14:56.116Z,18.73
2018-07-13T08:17:24.492Z,18.80
2018-07-13T08:19:52.540Z,18.83
2018-07-13T08:22:22.885Z,18.78
2018-07-13T08:24:54.009Z,18.94
2018-07-13T08:27:23.640Z,18.95
2018-07-13T08:29:53.104Z,19.10
2018-07-13T08:32:21.085Z,19.18
2018-07-13T08:34:49.365Z,19.26
2018-07-13T08:37:17.361Z,19.12
2018-07-13T08:39:46.413Z,19.29
2018-07-13T08:42:14.411Z,19.34
2018-07-13T08:44:42.396Z,19.27
2018-07-13T08:47:10.397Z,19.42
2018-07-13T08:49:38.448Z,19.65
2018-07-13T08:52:06.431Z,19.74
2018-07-13T08:54:34.425Z,20.02
2018-07-13T08:57:02.445Z,20.04
2018-07-13T08:59:30.520Z,19.98
2018-07-13T09:01:58.520Z,20.11
2018-07-13T09:04:26.504Z,20.11
2018-07-13T09:06:54.489Z,20.10
2018-07-13T09:09:22.513Z,20.22
2018-07-13T09:38:31.618Z,19.80
2018-07-13T09:40:59.601Z,19.97
2018-07-13T09:43:28.303Z,20.00
2018-07-13T09:45:56.273Z,20.08
2018-07-13T09:48:24.303Z,20.29
2018-07-13T09:50:52.302Z,20.20
2018-07-13T09:53:20.373Z,20.34
2018-07-13T09:55:53.335Z,20.39
2018-07-13T09:58:32.109Z,20.35
2018-07-13T10:01:06.614Z,20.41
2018-07-13T10:03:34.636Z,20.42
2018-07-13T10:06:03.066Z,20.47
2018-07-13T10:08:31.452Z,20.50
2018-07-13T10:10:59.453Z,20.41
2018-07-13T10:13:27.516Z,20.55
2018-07-13T10:15:55.972Z,20.51
2018-07-13T10:18:25.089Z,20.66
2018-07-13T10:20:53.581Z,20.92
2018-07-13T10:23:22.301Z,21.20
2018-07-13T10:25:54.202Z,21.42
2018-07-13T10:28:22.312Z,21.45
2018-07-13T10:30:50.458Z,21.39
2018-07-13T10:33:19.086Z,21.33
2018-07-13T10:35:47.163Z,21.43
2018-07-13T10:38:15.244Z,21.34
2018-07-13T10:40:43.418Z,21.30
2018-07-13T10:43:11.430Z,21.36
2018-07-13T10:45:39.466Z,21.32
2018-07-13T10:48:07.485Z,21.33
2018-07-13T10:50:35.488Z,21.30
2018-07-13T10:53:03.552Z,21.15
2018-07-13T10:55:31.630Z,21.36
2018-07-13T10:57:59.629Z,21.59
2018-07-13T11:00:27.662Z,21.67
2018-07-13T11:02:55.695Z,21.75
2018-07-13T11:05:23.675Z,21.59
2018-07-13T11:07:51.888Z,21.74
2018-07-13T11:10:19.860Z,21.85
2018-07-13T11:12:47.935Z,21.93
2018-07-13T11:15:15.948Z,22.29
2018-07-13T11:17:43.997Z,22.40
2018-07-13T11:20:12.023Z,22.48
2018-07-13T11:22:40.033Z,22.75
2018-07-13T11:25:08.065Z,22.84
2018-07-13T11:27:36.062Z,23.04
2018-07-13T11:30:05.131Z,23.38
2018-07-13T11:32:33.156Z,23.26
2018-07-13T11:35:01.184Z,23.18
2018-07-13T11:37:29.185Z,23.10
2018-07-13T11:39:57.210Z,23.29
2018-07-13T11:42:25.197Z,23.03
2018-07-13T11:44:53.253Z,23.27
2018-07-13T11:47:21.329Z,23.37
2018-07-13T11:49:49.526Z,23.60
2018-07-13T11:52:17.696Z,23.73
2018-07-13T11:54:46.964Z,23.73
2018-07-13T11:57:14.977Z,23.90
2018-07-13T11:59:43.070Z,24.08
2018-07-13T12:02:11.048Z,24.14
2018-07-13T12:04:39.070Z,24.30
2018-07-13T12:07:07.189Z,24.54
2018-07-13T12:09:35.189Z,24.56
2018-07-13T12:12:04.065Z,24.77
2018-07-13T12:14:32.434Z,24.85
2018-07-13T12:17:00.652Z,24.79
2018-07-13T12:19:28.684Z,24.97
2018-07-13T12:21:56.714Z,25.01
2018-07-13T12:24:24.765Z,25.02
2018-07-13T12:26:52.823Z,25.34
2018-07-13T12:29:20.874Z,25.86
2018-07-13T12:31:48.866Z,26.14
2018-07-13T12:34:16.878Z,26.49
2018-07-13T12:36:44.857Z,26.89
2018-07-13T12:39:12.863Z,26.81
2018-07-13T12:41:40.857Z,26.72
2018-07-13T12:44:08.948Z,26.94
2018-07-13T12:46:36.947Z,26.98
2018-07-13T12:49:04.946Z,26.81
2018-07-13T12:51:32.931Z,26.82
2018-07-13T12:54:01.049Z,27.09
2018-07-13T12:56:29.065Z,27.21
2018-07-13T12:58:57.084Z,27.32
2018-07-13T13:01:25.128Z,27.48
2018-07-13T13:03:53.161Z,27.68
2018-07-13T13:06:21.150Z,27.63
2018-07-13T13:08:49.164Z,27.28
2018-07-13T13:11:17.181Z,26.94
2018-07-13T13:13:45.169Z,26.95
2018-07-13T13:16:14.489Z,27.13
2018-07-13T13:18:42.492Z,27.18
2018-07-13T13:21:10.500Z,27.43
2018-07-13T13:23:38.501Z,27.53
2018-07-13T13:26:06.552Z,27.71
2018-07-13T13:28:34.540Z,27.26
2018-07-13T13:31:03.528Z,27.38
2018-07-13T13:33:31.534Z,27.40
2018-07-13T13:35:59.536Z,27.55
2018-07-13T13:38:27.568Z,27.93
2018-07-13T13:40:55.597Z,27.18
2018-07-13T13:43:23.577Z,27.14
2018-07-13T13:45:51.588Z,26.66
2018-07-13T13:48:19.576Z,26.34
2018-07-13T13:50:47.597Z,26.67
2018-07-13T13:53:15.589Z,26.80
2018-07-13T13:55:43.589Z,26.92
2018-07-13T13:58:11.593Z,27.16
2018-07-13T14:00:39.656Z,27.28
2018-07-13T14:03:07.641Z,27.58
2018-07-13T14:05:35.774Z,27.62
2018-07-13T14:08:03.629Z,27.58
2018-07-13T14:10:31.665Z,27.50
2018-07-13T14:12:59.878Z,27.45
2018-07-13T14:15:27.887Z,27.28
2018-07-13T14:17:55.881Z,27.33
2018-07-13T14:20:23.921Z,27.43
2018-07-13T14:22:51.859Z,27.39
2018-07-13T14:25:19.856Z,27.56
2018-07-13T14:27:47.920Z,27.21
2018-07-13T14:30:15.933Z,26.96
2018-07-13T14:32:43.917Z,26.94
2018-07-13T14:35:11.909Z,27.32
2018-07-13T14:37:39.909Z,27.49
2018-07-13T14:40:07.965Z,27.20
2018-07-13T14:42:35.945Z,27.34
2018-07-13T14:45:03.941Z,27.41
2018-07-13T14:47:31.984Z,27.64
2018-07-13T14:49:59.980Z,27.77
2018-07-13T14:52:27.970Z,27.91
2018-07-13T14:54:55.992Z,27.92
2018-07-13T14:57:23.986Z,28.13
2018-07-13T14:59:51.966Z,28.34
2018-07-13T15:02:20.048Z,28.27
2018-07-13T15:04:48.047Z,27.87
2018-07-13T15:07:16.036Z,27.53
2018-07-13T15:09:44.092Z,26.97
2018-07-13T15:12:12.036Z,26.97
2018-07-13T15:16:09.261Z,27.02
2018-07-13T15:18:37.331Z,26.71
2018-07-13T15:21:05.317Z,26.26
2018-07-13T15:23:33.513Z,26.31
2018-07-13T15:26:01.518Z,26.52
2018-07-13T15:28:29.541Z,26.84
2018-07-13T15:30:57.589Z,26.92
2018-07-13T15:33:25.580Z,26.72
2018-07-13T15:35:53.661Z,26.75
2018-07-13T15:38:21.696Z,26.67
2018-07-13T15:40:49.673Z,26.90
2018-07-13T15:43:17.679Z,26.91
2018-07-13T15:45:45.680Z,27.10
2018-07-13T15:48:13.677Z,27.09
2018-07-13T15:50:41.682Z,27.00
2018-07-13T15:53:09.664Z,26.92
2018-07-13T15:55:43.001Z,27.06
2018-07-13T15:58:11.004Z,26.95
2018-07-13T16:00:39.085Z,27.05
2018-07-13T16:03:07.276Z,26.76
2018-07-13T16:05:35.338Z,26.44
2018-07-13T16:08:03.377Z,26.51
2018-07-13T16:10:32.606Z,26.47
2018-07-13T16:13:00.774Z,26.53
2018-07-13T16:15:28.845Z,26.39
2018-07-13T16:17:57.009Z,26.67
2018-07-13T16:20:25.001Z,26.58
2018-07-13T16:22:53.067Z,26.41
2018-07-13T16:25:21.041Z,26.67
2018-07-13T16:27:49.069Z,26.74
2018-07-13T16:30:17.061Z,26.73
2018-07-13T16:35:18.533Z,26.26
2018-07-13T16:37:46.531Z,25.99
2018-07-13T16:40:14.553Z,25.62
2018-07-13T16:42:42.640Z,25.73
2018-07-13T16:45:10.715Z,25.84
2018-07-13T16:47:38.636Z,25.85
2018-07-13T16:50:06.644Z,25.84
2018-07-13T16:52:35.736Z,25.47
2018-07-13T16:55:03.730Z,25.67
2018-07-13T16:57:31.764Z,25.60
2018-07-13T16:59:59.765Z,25.72
2018-07-13T17:02:27.798Z,25.99
2018-07-13T17:04:55.779Z,26.09
2018-07-13T17:07:23.901Z,25.90
2018-07-13T17:09:52.056Z,26.12
2018-07-13T17:12:20.057Z,25.98
2018-07-13T17:14:48.067Z,26.15
2018-07-13T17:17:16.090Z,25.71
2018-07-13T17:19:44.085Z,25.65
2018-07-13T17:22:12.121Z,25.57
2018-07-13T17:24:40.513Z,25.59
2018-07-13T17:27:08.545Z,25.42
2018-07-13T17:29:36.602Z,25.22
2018-07-13T17:32:04.737Z,24.90
2018-07-13T17:34:32.828Z,25.01
2018-07-13T17:37:00.844Z,24.58
2018-07-13T17:39:28.993Z,24.36
2018-07-13T17:41:57.280Z,24.26
2018-07-13T17:44:25.308Z,23.81
2018-07-13T17:46:53.388Z,23.65
2018-07-13T17:49:21.431Z,23.55
2018-07-13T17:51:49.436Z,23.52
2018-07-13T17:54:17.534Z,23.51
2018-07-13T17:56:45.562Z,23.57
2018-07-13T17:59:13.628Z,23.63
2018-07-13T18:01:41.809Z,23.12
2018-07-13T18:04:09.852Z,23.03
2018-07-13T18:06:37.907Z,23.20
2018-07-13T18:09:06.868Z,23.19
2018-07-13T18:11:34.957Z,23.03
2018-07-13T18:14:02.997Z,22.83
2018-07-13T18:16:31.032Z,22.66
2018-07-13T18:18:59.053Z,22.50
2018-07-13T18:21:27.152Z,22.63
2018-07-13T18:23:55.125Z,22.63
2018-07-13T18:26:23.261Z,22.47
2018-07-13T18:28:51.397Z,22.40
2018-07-13T18:31:19.432Z,22.39
2018-07-13T18:33:47.450Z,22.27
2018-07-13T18:36:15.431Z,21.78
2018-07-13T18:38:44.181Z,21.77
2018-07-13T18:41:12.880Z,21.46
2018-07-13T18:43:40.920Z,21.43
2018-07-13T18:46:08.923Z,21.32
2018-07-13T18:48:36.913Z,21.31
2018-07-13T18:51:04.913Z,21.17
2018-07-13T18:53:32.911Z,20.98
2018-07-13T18:56:00.962Z,20.97
2018-07-13T18:58:28.972Z,20.74
2018-07-13T19:00:57.037Z,20.70
2018-07-13T19:03:25.029Z,20.61
2018-07-13T19:05:53.018Z,20.40
2018-07-13T19:08:21.030Z,20.28
2018-07-13T19:10:49.061Z,20.16
2018-07-13T19:13:17.081Z,19.89
2018-07-13T19:15:45.028Z,19.94
2018-07-13T19:18:13.686Z,19.93
2018-07-13T19:20:41.680Z,20.05
2018-07-13T19:23:09.805Z,19.83
2018-07-13T19:25:37.850Z,19.86
2018-07-13T19:28:05.869Z,19.80
2018-07-13T19:30:33.913Z,19.64
2018-07-13T19:33:01.933Z,19.43
2018-07-13T19:35:30.037Z,19.40
2018-07-13T19:37:58.029Z,19.36
2018-07-13T19:40:26.126Z,19.51
2018-07-13T19:42:54.112Z,19.50
2018-07-13T19:45:22.101Z,19.20
2018-07-13T19:47:51.241Z,19.09
2018-07-13T19:50:19.304Z,18.86
2018-07-13T19:52:47.290Z,18.77
2018-07-13T19:55:15.414Z,18.75
2018-07-13T19:57:43.798Z,18.79
2018-07-13T20:00:11.944Z,18.80
2018-07-13T20:02:39.900Z,18.76
2018-07-13T20:05:07.974Z,18.72
2018-07-13T20:07:36.103Z,18.84
2018-07-13T20:10:04.254Z,18.77
2018-07-13T20:12:32.272Z,18.64
2018-07-13T20:15:00.301Z,18.65
2018-07-13T20:17:28.583Z,18.58
2018-07-13T20:19:56.577Z,18.53
2018-07-13T20:22:24.584Z,18.32
2018-07-13T20:24:52.588Z,18.37
2018-07-13T20:27:20.593Z,18.39
2018-07-13T20:29:48.609Z,18.29
2018-07-13T20:32:16.604Z,18.41
2018-07-13T20:34:44.625Z,18.36
2018-07-13T20:37:12.609Z,18.27
2018-07-13T20:39:40.601Z,18.36
2018-07-13T20:42:08.636Z,18.29
2018-07-13T20:44:36.636Z,18.14
2018-07-13T20:47:05.008Z,18.11
2018-07-13T20:49:33.085Z,17.89
2018-07-13T20:52:01.073Z,17.91
2018-07-13T20:54:29.073Z,17.70
2018-07-13T20:56:57.068Z,17.48
2018-07-13T20:59:25.089Z,17.46
2018-07-13T21:01:53.095Z,17.51
2018-07-13T21:04:21.086Z,17.44
2018-07-13T21:06:49.081Z,17.31
2018-07-13T21:09:17.330Z,17.24
2018-07-13T21:11:45.404Z,17.16
2018-07-13T21:14:13.535Z,17.23
2018-07-13T21:16:41.581Z,17.17
2018-07-13T21:19:09.658Z,17.15
2018-07-13T21:21:37.661Z,17.20
2018-07-13T21:24:05.948Z,17.30
2018-07-13T21:26:33.992Z,17.29
2018-07-13T21:29:01.972Z,17.29
2018-07-13T21:31:30.041Z,17.24
2018-07-13T21:33:58.050Z,17.14
2018-07-13T21:36:26.053Z,17.08
2018-07-13T21:38:54.029Z,17.01
2018-07-13T21:41:22.028Z,17.00
2018-07-13T21:43:50.015Z,17.05
2018-07-13T21:46:18.001Z,16.83
2018-07-13T21:48:46.029Z,16.79
2018-07-13T21:51:14.517Z,16.91
2018-07-13T21:53:42.561Z,16.95
2018-07-13T21:56:10.556Z,16.97
2018-07-13T21:58:38.621Z,16.97
2018-07-13T22:01:07.179Z,16.95
2018-07-13T22:03:35.776Z,16.84
2018-07-13T22:06:04.448Z,16.79
2018-07-13T22:08:33.079Z,16.68
2018-07-13T22:11:01.692Z,16.63
2018-07-13T22:13:31.374Z,16.60
2018-07-13T22:16:00.912Z,16.43
2018-07-13T22:18:29.668Z,16.42
2018-07-13T22:20:57.937Z,16.41
2018-07-13T22:23:26.638Z,16.41
2018-07-13T22:25:54.785Z,16.33
2018-07-13T22:30:55.440Z,16.44
2018-07-13T22:33:24.044Z,16.47
2018-07-13T22:35:52.281Z,16.33
2018-07-13T22:38:20.306Z,16.34
2018-07-13T22:40:48.355Z,16.30
2018-07-13T22:43:16.588Z,16.25
2018-07-13T22:45:44.681Z,16.22
2018-07-13T22:48:12.704Z,16.15
2018-07-13T22:50:40.740Z,15.84
2018-07-13T22:53:08.745Z,15.77
2018-07-13T22:57:02.545Z,15.73
2018-07-13T22:59:30.528Z,15.86
2018-07-13T23:01:58.561Z,15.87
2018-07-13T23:04:28.576Z,15.81
2018-07-13T23:06:56.649Z,15.76
2018-07-13T23:09:24.669Z,15.77
2018-07-13T23:11:52.729Z,15.71
2018-07-13T23:14:20.710Z,15.73
2018-07-13T23:16:48.780Z,15.87
2018-07-13T23:19:16.776Z,15.73
2018-07-13T23:21:44.886Z,15.69
2018-07-13T23:24:12.855Z,15.71
2018-07-13T23:26:40.853Z,15.59
2018-07-13T23:29:10.086Z,15.58
2018-07-13T23:31:38.084Z,15.59
2018-07-13T23:34:06.094Z,15.68
2018-07-13T23:36:34.109Z,15.61
2018-07-13T23:39:02.116Z,15.60
2018-07-13T23:41:30.145Z,15.68
2018-07-13T23:43:58.176Z,15.75
2018-07-13T23:46:26.172Z,15.78
2018-07-13T23:48:54.183Z,15.82
2018-07-13T23:51:22.201Z,15.80
2018-07-13T23:53:50.360Z,15.91
2018-07-13T23:56:18.398Z,16.00
2018-07-13T23:58:46.623Z,15.98
